Terminal Aerodrome Forecast
Issued by NWS Greer, SC

Home | Current Version | Previous Version | Text Only | Print | Product List | Glossary On
Versions: 1 2 3 4 5 6 7 8 9 10 11 12 13 14 15 16 17 18 19 20 21 22 23
000
FTUS42 KGSP 260857 AAA
TAFCLT
TAF AMD
KCLT 260857Z 2609/2706 00000KT P6SM FEW250
     FM261300 04006KT P6SM SCT045
     FM262200 11003KT P6SM SCT045=

USA.gov is the U.S. government's official web portal to all federal, state and local government web resources and services.